createdAt,value
2019-03-28T00:26:13.483Z,43.92
2019-03-28T00:56:17.375Z,47.62
2019-03-28T01:26:21.235Z,44.00
2019-03-28T01:56:25.297Z,41.73
2019-03-28T02:26:29.539Z,44.42
2019-03-28T02:56:33.439Z,42.33
2019-03-28T03:26:37.210Z,46.65
2019-03-28T03:56:41.039Z,50.50
2019-03-28T04:26:45.154Z,54.27
2019-03-28T04:56:49.343Z,50.17
2019-03-28T05:26:53.462Z,41.53
2019-03-28T05:56:57.232Z,49.83
2019-03-28T06:27:01.014Z,57.53
2019-03-28T06:57:04.795Z,43.60
2019-03-28T07:27:08.571Z,35.90
2019-03-28T07:57:12.246Z,31.68
2019-03-28T08:27:16.084Z,35.83
2019-03-28T08:57:19.869Z,13.78
2019-03-28T09:27:23.666Z,5.92
2019-03-28T09:57:27.384Z,9.18
2019-03-28T10:27:31.256Z,11.10
2019-03-28T10:57:35.196Z,10.72
2019-03-28T11:27:39.035Z,10.58
2019-03-28T11:57:42.813Z,13.72
2019-03-28T12:27:47.085Z,11.03
2019-03-28T12:57:50.969Z,7.35
2019-03-28T13:27:54.787Z,26.20
2019-03-28T13:57:58.767Z,25.90
2019-03-28T14:28:02.544Z,19.65
2019-03-28T14:58:07.432Z,15.83
2019-03-28T15:28:11.755Z,18.55
2019-03-28T15:58:23.191Z,14.50
2019-03-28T16:28:20.929Z,17.92
2019-03-28T16:58:24.893Z,15.93
2019-03-28T17:28:29.936Z,20.23
2019-03-28T17:58:34.607Z,27.20
2019-03-28T18:28:38.527Z,28.38
2019-03-28T18:58:42.322Z,62.53
2019-03-28T19:28:46.132Z,99.58
2019-03-28T19:58:50.002Z,87.65
2019-03-28T20:28:53.878Z,130.80
2019-03-28T20:58:57.899Z,137.45
2019-03-28T21:29:01.727Z,94.35
2019-03-28T21:59:07.068Z,109.83
2019-03-28T22:29:11.029Z,130.95
2019-03-28T22:59:14.790Z,102.17
2019-03-28T23:29:18.795Z,96.12
2019-03-28T23:59:22.617Z,86.53
